sensor_id;sensor_type;location;lat;lon;timestamp;P1;durP1;ratioP1;P2;durP2;ratioP2
41943;SDS011;27636;52.610;13.244;2023-08-07T00:00:18;6.05;;;2.95;;
41943;SDS011;27636;52.610;13.244;2023-08-07T00:05:22;7.45;;;3.08;;
41943;SDS011;27636;52.610;13.244;2023-08-07T00:10:27;8.33;;;3.60;;
41943;SDS011;27636;52.610;13.244;2023-08-07T00:15:32;16.67;;;3.50;;
41943;SDS011;27636;52.610;13.244;2023-08-07T00:20:39;7.75;;;3.20;;
41943;SDS011;27636;52.610;13.244;2023-08-07T00:25:43;9.05;;;4.03;;
41943;SDS011;27636;52.610;13.244;2023-08-07T00:30:48;8.02;;;3.20;;
41943;SDS011;27636;52.610;13.244;2023-08-07T00:35:52;7.20;;;3.90;;
41943;SDS011;27636;52.610;13.244;2023-08-07T00:40:55;6.78;;;3.50;;
41943;SDS011;27636;52.610;13.244;2023-08-07T00:46:00;7.90;;;3.83;;
41943;SDS011;27636;52.610;13.244;2023-08-07T00:51:05;21.40;;;3.97;;
41943;SDS011;27636;52.610;13.244;2023-08-07T00:56:11;9.07;;;3.42;;
41943;SDS011;27636;52.610;13.244;2023-08-07T01:01:16;7.60;;;3.20;;
41943;SDS011;27636;52.610;13.244;2023-08-07T01:06:21;7.55;;;3.17;;
41943;SDS011;27636;52.610;13.244;2023-08-07T01:11:28;6.43;;;3.30;;
41943;SDS011;27636;52.610;13.244;2023-08-07T01:16:40;13.23;;;4.07;;
41943;SDS011;27636;52.610;13.244;2023-08-07T01:21:50;8.23;;;3.55;;
41943;SDS011;27636;52.610;13.244;2023-08-07T01:27:18;8.18;;;3.55;;
41943;SDS011;27636;52.610;13.244;2023-08-07T01:32:29;7.63;;;3.78;;
41943;SDS011;27636;52.610;13.244;2023-08-07T01:37:41;8.00;;;3.35;;
41943;SDS011;27636;52.610;13.244;2023-08-07T01:42:47;12.77;;;3.97;;
41943;SDS011;27636;52.610;13.244;2023-08-07T01:47:52;9.87;;;3.80;;
41943;SDS011;27636;52.610;13.244;2023-08-07T01:52:57;8.65;;;3.88;;
41943;SDS011;27636;52.610;13.244;2023-08-07T01:58:01;8.32;;;3.22;;
41943;SDS011;27636;52.610;13.244;2023-08-07T02:03:05;16.67;;;3.38;;
41943;SDS011;27636;52.610;13.244;2023-08-07T02:08:10;12.52;;;2.90;;
41943;SDS011;27636;52.610;13.244;2023-08-07T02:13:14;8.52;;;3.80;;
41943;SDS011;27636;52.610;13.244;2023-08-07T02:18:18;7.68;;;3.83;;
41943;SDS011;27636;52.610;13.244;2023-08-07T02:23:24;10.95;;;3.80;;
41943;SDS011;27636;52.610;13.244;2023-08-07T02:28:28;8.43;;;4.40;;
41943;SDS011;27636;52.610;13.244;2023-08-07T02:33:32;12.90;;;3.65;;
41943;SDS011;27636;52.610;13.244;2023-08-07T02:38:37;9.95;;;4.50;;
41943;SDS011;27636;52.610;13.244;2023-08-07T02:43:41;11.02;;;3.65;;
41943;SDS011;27636;52.610;13.244;2023-08-07T02:48:45;10.35;;;4.07;;
41943;SDS011;27636;52.610;13.244;2023-08-07T02:53:49;11.95;;;4.97;;
41943;SDS011;27636;52.610;13.244;2023-08-07T02:58:54;13.60;;;4.80;;
41943;SDS011;27636;52.610;13.244;2023-08-07T03:03:58;14.98;;;4.40;;
41943;SDS011;27636;52.610;13.244;2023-08-07T03:09:03;19.00;;;4.78;;
41943;SDS011;27636;52.610;13.244;2023-08-07T03:14:07;17.75;;;5.28;;
41943;SDS011;27636;52.610;13.244;2023-08-07T03:19:10;11.70;;;4.22;;
41943;SDS011;27636;52.610;13.244;2023-08-07T03:24:16;9.35;;;4.28;;
41943;SDS011;27636;52.610;13.244;2023-08-07T03:34:23;10.88;;;4.72;;
41943;SDS011;27636;52.610;13.244;2023-08-07T03:39:29;9.25;;;4.35;;
41943;SDS011;27636;52.610;13.244;2023-08-07T03:44:32;13.23;;;5.50;;
41943;SDS011;27636;52.610;13.244;2023-08-07T03:49:37;12.13;;;5.75;;
41943;SDS011;27636;52.610;13.244;2023-08-07T03:54:42;12.32;;;4.80;;
41943;SDS011;27636;52.610;13.244;2023-08-07T03:59:46;11.60;;;4.32;;
41943;SDS011;27636;52.610;13.244;2023-08-07T04:04:50;10.98;;;4.30;;
41943;SDS011;27636;52.610;13.244;2023-08-07T04:09:55;12.13;;;5.05;;
41943;SDS011;27636;52.610;13.244;2023-08-07T04:14:59;11.35;;;4.70;;
41943;SDS011;27636;52.610;13.244;2023-08-07T04:20:02;8.43;;;4.15;;
41943;SDS011;27636;52.610;13.244;2023-08-07T04:25:09;13.48;;;5.82;;
41943;SDS011;27636;52.610;13.244;2023-08-07T04:30:12;10.23;;;4.90;;
41943;SDS011;27636;52.610;13.244;2023-08-07T04:35:17;9.47;;;3.87;;
41943;SDS011;27636;52.610;13.244;2023-08-07T04:40:22;13.20;;;4.30;;
41943;SDS011;27636;52.610;13.244;2023-08-07T04:45:25;9.23;;;4.18;;
41943;SDS011;27636;52.610;13.244;2023-08-07T04:50:30;10.27;;;4.05;;
41943;SDS011;27636;52.610;13.244;2023-08-07T04:55:35;10.60;;;4.07;;
41943;SDS011;27636;52.610;13.244;2023-08-07T05:05:42;6.32;;;3.20;;
41943;SDS011;27636;52.610;13.244;2023-08-07T05:10:47;13.50;;;4.15;;
41943;SDS011;27636;52.610;13.244;2023-08-07T05:20:54;13.43;;;4.43;;
41943;SDS011;27636;52.610;13.244;2023-08-07T05:25:59;12.02;;;5.03;;
41943;SDS011;27636;52.610;13.244;2023-08-07T05:31:03;8.85;;;4.05;;
41943;SDS011;27636;52.610;13.244;2023-08-07T05:36:07;9.93;;;3.85;;
41943;SDS011;27636;52.610;13.244;2023-08-07T05:41:12;7.18;;;3.00;;
41943;SDS011;27636;52.610;13.244;2023-08-07T05:51:20;10.57;;;3.08;;
41943;SDS011;27636;52.610;13.244;2023-08-07T05:56:25;7.25;;;3.25;;
41943;SDS011;27636;52.610;13.244;2023-08-07T06:01:29;6.60;;;2.40;;
41943;SDS011;27636;52.610;13.244;2023-08-07T06:06:34;6.70;;;2.53;;
41943;SDS011;27636;52.610;13.244;2023-08-07T06:11:40;4.93;;;2.40;;
41943;SDS011;27636;52.610;13.244;2023-08-07T06:16:43;5.60;;;2.15;;
41943;SDS011;27636;52.610;13.244;2023-08-07T06:21:48;7.93;;;2.13;;
41943;SDS011;27636;52.610;13.244;2023-08-07T06:26:53;4.15;;;2.13;;
41943;SDS011;27636;52.610;13.244;2023-08-07T06:31:56;4.90;;;1.70;;
41943;SDS011;27636;52.610;13.244;2023-08-07T06:37:02;4.50;;;2.10;;
41943;SDS011;27636;52.610;13.244;2023-08-07T06:42:08;4.30;;;1.70;;
41943;SDS011;27636;52.610;13.244;2023-08-07T06:52:15;6.57;;;1.77;;
41943;SDS011;27636;52.610;13.244;2023-08-07T06:57:20;3.17;;;1.15;;
41943;SDS011;27636;52.610;13.244;2023-08-07T07:02:24;5.72;;;1.63;;
41943;SDS011;27636;52.610;13.244;2023-08-07T07:07:28;4.75;;;1.77;;
41943;SDS011;27636;52.610;13.244;2023-08-07T07:12:34;7.80;;;1.45;;
41943;SDS011;27636;52.610;13.244;2023-08-07T07:17:37;4.82;;;1.42;;
41943;SDS011;27636;52.610;13.244;2023-08-07T07:22:42;3.28;;;1.30;;
41943;SDS011;27636;52.610;13.244;2023-08-07T07:27:47;6.05;;;1.60;;
41943;SDS011;27636;52.610;13.244;2023-08-07T07:32:50;3.15;;;1.05;;
41943;SDS011;27636;52.610;13.244;2023-08-07T07:37:54;5.32;;;1.30;;
41943;SDS011;27636;52.610;13.244;2023-08-07T07:42:59;7.00;;;1.95;;
41943;SDS011;27636;52.610;13.244;2023-08-07T07:48:03;7.30;;;1.60;;
41943;SDS011;27636;52.610;13.244;2023-08-07T07:53:09;2.88;;;1.45;;
41943;SDS011;27636;52.610;13.244;2023-08-07T07:58:14;3.88;;;1.70;;
41943;SDS011;27636;52.610;13.244;2023-08-07T08:03:18;3.35;;;1.30;;
41943;SDS011;27636;52.610;13.244;2023-08-07T08:08:22;5.18;;;1.00;;
41943;SDS011;27636;52.610;13.244;2023-08-07T08:13:31;3.42;;;1.50;;
41943;SDS011;27636;52.610;13.244;2023-08-07T08:18:35;6.47;;;1.05;;
41943;SDS011;27636;52.610;13.244;2023-08-07T08:23:39;3.78;;;1.42;;
41943;SDS011;27636;52.610;13.244;2023-08-07T08:28:43;3.95;;;1.65;;
41943;SDS011;27636;52.610;13.244;2023-08-07T08:33:47;3.30;;;1.55;;
41943;SDS011;27636;52.610;13.244;2023-08-07T08:38:51;4.73;;;1.60;;
41943;SDS011;27636;52.610;13.244;2023-08-07T08:43:57;5.10;;;1.70;;
41943;SDS011;27636;52.610;13.244;2023-08-07T08:49:04;5.57;;;1.80;;
41943;SDS011;27636;52.610;13.244;2023-08-07T08:54:08;5.73;;;1.60;;
41943;SDS011;27636;52.610;13.244;2023-08-07T08:59:13;3.80;;;1.45;;
41943;SDS011;27636;52.610;13.244;2023-08-07T09:04:21;3.97;;;1.40;;
41943;SDS011;27636;52.610;13.244;2023-08-07T09:09:25;4.00;;;1.30;;
41943;SDS011;27636;52.610;13.244;2023-08-07T09:14:30;4.90;;;1.60;;
41943;SDS011;27636;52.610;13.244;2023-08-07T09:19:40;4.63;;;1.52;;
41943;SDS011;27636;52.610;13.244;2023-08-07T09:24:44;5.35;;;1.50;;
41943;SDS011;27636;52.610;13.244;2023-08-07T09:29:50;3.30;;;1.37;;
41943;SDS011;27636;52.610;13.244;2023-08-07T09:39:59;2.88;;;1.20;;
41943;SDS011;27636;52.610;13.244;2023-08-07T09:45:08;2.83;;;1.15;;
41943;SDS011;27636;52.610;13.244;2023-08-07T09:50:22;2.78;;;1.10;;
41943;SDS011;27636;52.610;13.244;2023-08-07T09:55:26;3.72;;;1.67;;
41943;SDS011;27636;52.610;13.244;2023-08-07T10:00:34;3.00;;;1.33;;
41943;SDS011;27636;52.610;13.244;2023-08-07T10:05:38;3.72;;;1.20;;
41943;SDS011;27636;52.610;13.244;2023-08-07T10:10:42;2.90;;;0.93;;
41943;SDS011;27636;52.610;13.244;2023-08-07T10:15:48;3.55;;;1.45;;
41943;SDS011;27636;52.610;13.244;2023-08-07T10:20:53;4.63;;;1.25;;
41943;SDS011;27636;52.610;13.244;2023-08-07T10:25:57;5.57;;;1.33;;
41943;SDS011;27636;52.610;13.244;2023-08-07T10:31:03;2.55;;;1.17;;
41943;SDS011;27636;52.610;13.244;2023-08-07T10:36:08;5.68;;;1.45;;
41943;SDS011;27636;52.610;13.244;2023-08-07T10:46:20;2.05;;;0.98;;
41943;SDS011;27636;52.610;13.244;2023-08-07T10:51:27;4.55;;;1.15;;
41943;SDS011;27636;52.610;13.244;2023-08-07T10:56:34;3.90;;;1.40;;
41943;SDS011;27636;52.610;13.244;2023-08-07T11:01:43;2.67;;;1.27;;
41943;SDS011;27636;52.610;13.244;2023-08-07T11:06:53;2.35;;;0.77;;
41943;SDS011;27636;52.610;13.244;2023-08-07T11:11:57;1.77;;;1.13;;
41943;SDS011;27636;52.610;13.244;2023-08-07T11:17:04;5.82;;;1.20;;
41943;SDS011;27636;52.610;13.244;2023-08-07T11:22:08;4.07;;;1.05;;
41943;SDS011;27636;52.610;13.244;2023-08-07T11:27:13;2.42;;;1.00;;
41943;SDS011;27636;52.610;13.244;2023-08-07T11:32:19;3.60;;;1.27;;
41943;SDS011;27636;52.610;13.244;2023-08-07T11:37:24;3.60;;;1.30;;
41943;SDS011;27636;52.610;13.244;2023-08-07T11:42:28;5.40;;;1.30;;
41943;SDS011;27636;52.610;13.244;2023-08-07T11:47:34;4.88;;;1.48;;
41943;SDS011;27636;52.610;13.244;2023-08-07T11:57:43;3.13;;;1.20;;
41943;SDS011;27636;52.610;13.244;2023-08-07T12:02:50;6.22;;;1.27;;
41943;SDS011;27636;52.610;13.244;2023-08-07T12:07:54;3.90;;;1.33;;
41943;SDS011;27636;52.610;13.244;2023-08-07T12:12:58;2.45;;;1.30;;
41943;SDS011;27636;52.610;13.244;2023-08-07T12:18:06;3.03;;;1.17;;
41943;SDS011;27636;52.610;13.244;2023-08-07T12:23:13;3.40;;;1.05;;
41943;SDS011;27636;52.610;13.244;2023-08-07T12:28:19;5.10;;;1.95;;
41943;SDS011;27636;52.610;13.244;2023-08-07T12:33:25;3.53;;;1.02;;
41943;SDS011;27636;52.610;13.244;2023-08-07T12:43:32;5.27;;;1.13;;
41943;SDS011;27636;52.610;13.244;2023-08-07T12:48:37;4.03;;;1.52;;
41943;SDS011;27636;52.610;13.244;2023-08-07T12:53:42;6.25;;;1.33;;
41943;SDS011;27636;52.610;13.244;2023-08-07T12:58:46;2.97;;;1.20;;
41943;SDS011;27636;52.610;13.244;2023-08-07T13:03:51;8.05;;;1.70;;
41943;SDS011;27636;52.610;13.244;2023-08-07T13:08:55;5.03;;;1.45;;
41943;SDS011;27636;52.610;13.244;2023-08-07T13:13:59;6.27;;;1.80;;
41943;SDS011;27636;52.610;13.244;2023-08-07T13:19:03;7.78;;;1.50;;
41943;SDS011;27636;52.610;13.244;2023-08-07T13:24:08;9.70;;;1.30;;
41943;SDS011;27636;52.610;13.244;2023-08-07T13:29:12;6.43;;;1.30;;
41943;SDS011;27636;52.610;13.244;2023-08-07T13:34:17;13.57;;;1.47;;
41943;SDS011;27636;52.610;13.244;2023-08-07T13:39:20;3.53;;;1.13;;
41943;SDS011;27636;52.610;13.244;2023-08-07T13:44:25;6.22;;;1.45;;
41943;SDS011;27636;52.610;13.244;2023-08-07T13:49:30;6.25;;;1.60;;
41943;SDS011;27636;52.610;13.244;2023-08-07T13:54:33;5.90;;;1.15;;
41943;SDS011;27636;52.610;13.244;2023-08-07T13:59:38;7.68;;;1.35;;
41943;SDS011;27636;52.610;13.244;2023-08-07T14:04:43;8.10;;;1.73;;
41943;SDS011;27636;52.610;13.244;2023-08-07T14:09:48;8.30;;;1.73;;
41943;SDS011;27636;52.610;13.244;2023-08-07T14:14:52;5.60;;;1.17;;
41943;SDS011;27636;52.610;13.244;2023-08-07T14:19:57;3.58;;;1.58;;
41943;SDS011;27636;52.610;13.244;2023-08-07T14:25:01;6.88;;;1.10;;
41943;SDS011;27636;52.610;13.244;2023-08-07T14:30:05;4.28;;;1.95;;
41943;SDS011;27636;52.610;13.244;2023-08-07T14:35:11;4.13;;;1.60;;
41943;SDS011;27636;52.610;13.244;2023-08-07T14:40:16;3.00;;;1.20;;
41943;SDS011;27636;52.610;13.244;2023-08-07T14:45:19;2.53;;;1.20;;
41943;SDS011;27636;52.610;13.244;2023-08-07T14:50:25;6.25;;;1.40;;
41943;SDS011;27636;52.610;13.244;2023-08-07T14:55:29;4.18;;;1.30;;
41943;SDS011;27636;52.610;13.244;2023-08-07T15:00:34;7.90;;;1.25;;
41943;SDS011;27636;52.610;13.244;2023-08-07T15:05:39;4.78;;;1.65;;
41943;SDS011;27636;52.610;13.244;2023-08-07T15:10:43;6.40;;;1.17;;
41943;SDS011;27636;52.610;13.244;2023-08-07T15:15:46;3.13;;;1.60;;
41943;SDS011;27636;52.610;13.244;2023-08-07T15:20:51;3.10;;;0.90;;
41943;SDS011;27636;52.610;13.244;2023-08-07T15:31:01;2.72;;;1.63;;
41943;SDS011;27636;52.610;13.244;2023-08-07T15:36:07;4.90;;;1.20;;
41943;SDS011;27636;52.610;13.244;2023-08-07T15:46:14;3.83;;;1.23;;
41943;SDS011;27636;52.610;13.244;2023-08-07T15:51:20;7.53;;;1.30;;
41943;SDS011;27636;52.610;13.244;2023-08-07T15:56:24;2.95;;;1.10;;
41943;SDS011;27636;52.610;13.244;2023-08-07T16:01:28;5.30;;;1.58;;
41943;SDS011;27636;52.610;13.244;2023-08-07T16:06:33;3.83;;;1.60;;
41943;SDS011;27636;52.610;13.244;2023-08-07T16:11:37;7.05;;;1.92;;
41943;SDS011;27636;52.610;13.244;2023-08-07T16:16:40;6.68;;;1.45;;
41943;SDS011;27636;52.610;13.244;2023-08-07T16:21:45;5.65;;;1.63;;
41943;SDS011;27636;52.610;13.244;2023-08-07T16:26:49;2.33;;;1.02;;
41943;SDS011;27636;52.610;13.244;2023-08-07T16:31:52;5.43;;;1.45;;
41943;SDS011;27636;52.610;13.244;2023-08-07T16:36:59;5.70;;;1.65;;
41943;SDS011;27636;52.610;13.244;2023-08-07T16:42:03;5.93;;;1.20;;
41943;SDS011;27636;52.610;13.244;2023-08-07T16:47:07;4.43;;;1.20;;
41943;SDS011;27636;52.610;13.244;2023-08-07T16:52:13;9.25;;;2.03;;
41943;SDS011;27636;52.610;13.244;2023-08-07T16:57:17;6.13;;;1.52;;
41943;SDS011;27636;52.610;13.244;2023-08-07T17:02:21;3.15;;;0.95;;
41943;SDS011;27636;52.610;13.244;2023-08-07T17:07:26;4.10;;;1.35;;
41943;SDS011;27636;52.610;13.244;2023-08-07T17:12:30;4.13;;;1.20;;
41943;SDS011;27636;52.610;13.244;2023-08-07T17:17:33;9.68;;;1.73;;
41943;SDS011;27636;52.610;13.244;2023-08-07T17:22:38;2.85;;;1.05;;
41943;SDS011;27636;52.610;13.244;2023-08-07T17:27:42;4.35;;;1.00;;
41943;SDS011;27636;52.610;13.244;2023-08-07T17:32:46;5.47;;;1.05;;
41943;SDS011;27636;52.610;13.244;2023-08-07T17:37:51;3.17;;;1.10;;
41943;SDS011;27636;52.610;13.244;2023-08-07T17:42:54;2.13;;;0.88;;
41943;SDS011;27636;52.610;13.244;2023-08-07T17:47:58;3.72;;;1.10;;
41943;SDS011;27636;52.610;13.244;2023-08-07T17:53:03;4.50;;;1.45;;
41943;SDS011;27636;52.610;13.244;2023-08-07T17:58:07;5.30;;;1.48;;
41943;SDS011;27636;52.610;13.244;2023-08-07T18:03:10;7.68;;;1.27;;
41943;SDS011;27636;52.610;13.244;2023-08-07T18:08:16;4.97;;;1.30;;
41943;SDS011;27636;52.610;13.244;2023-08-07T18:13:19;5.15;;;1.20;;
41943;SDS011;27636;52.610;13.244;2023-08-07T18:18:23;3.58;;;1.48;;
41943;SDS011;27636;52.610;13.244;2023-08-07T18:23:28;2.38;;;1.02;;
41943;SDS011;27636;52.610;13.244;2023-08-07T18:28:34;3.63;;;1.63;;
41943;SDS011;27636;52.610;13.244;2023-08-07T18:33:37;6.65;;;1.25;;
41943;SDS011;27636;52.610;13.244;2023-08-07T18:38:43;4.40;;;1.38;;
41943;SDS011;27636;52.610;13.244;2023-08-07T18:43:46;6.45;;;1.05;;
41943;SDS011;27636;52.610;13.244;2023-08-07T18:48:50;12.27;;;1.58;;
41943;SDS011;27636;52.610;13.244;2023-08-07T18:53:55;2.70;;;1.08;;
41943;SDS011;27636;52.610;13.244;2023-08-07T18:58:59;5.32;;;1.10;;
41943;SDS011;27636;52.610;13.244;2023-08-07T19:04:06;5.07;;;0.75;;
41943;SDS011;27636;52.610;13.244;2023-08-07T19:09:11;7.90;;;2.13;;
41943;SDS011;27636;52.610;13.244;2023-08-07T19:14:15;1.80;;;0.80;;
41943;SDS011;27636;52.610;13.244;2023-08-07T19:19:19;8.80;;;1.15;;
41943;SDS011;27636;52.610;13.244;2023-08-07T19:24:24;4.00;;;0.90;;
41943;SDS011;27636;52.610;13.244;2023-08-07T19:29:28;3.40;;;1.20;;
41943;SDS011;27636;52.610;13.244;2023-08-07T19:34:31;3.55;;;1.05;;
41943;SDS011;27636;52.610;13.244;2023-08-07T19:39:37;10.27;;;1.13;;
41943;SDS011;27636;52.610;13.244;2023-08-07T19:44:41;2.90;;;1.17;;
41943;SDS011;27636;52.610;13.244;2023-08-07T19:49:45;1.73;;;0.83;;
41943;SDS011;27636;52.610;13.244;2023-08-07T19:54:51;3.55;;;1.08;;
41943;SDS011;27636;52.610;13.244;2023-08-07T19:59:54;7.63;;;1.40;;
41943;SDS011;27636;52.610;13.244;2023-08-07T20:04:58;6.47;;;1.45;;
41943;SDS011;27636;52.610;13.244;2023-08-07T20:10:03;5.07;;;1.23;;
41943;SDS011;27636;52.610;13.244;2023-08-07T20:15:12;3.42;;;1.25;;
41943;SDS011;27636;52.610;13.244;2023-08-07T20:20:16;3.88;;;1.15;;
41943;SDS011;27636;52.610;13.244;2023-08-07T20:25:24;5.80;;;0.88;;
41943;SDS011;27636;52.610;13.244;2023-08-07T20:30:29;7.20;;;1.10;;
41943;SDS011;27636;52.610;13.244;2023-08-07T20:35:33;4.45;;;1.30;;
41943;SDS011;27636;52.610;13.244;2023-08-07T20:40:38;2.30;;;1.00;;
41943;SDS011;27636;52.610;13.244;2023-08-07T20:45:41;4.35;;;1.20;;
41943;SDS011;27636;52.610;13.244;2023-08-07T20:50:47;2.33;;;0.90;;
41943;SDS011;27636;52.610;13.244;2023-08-07T20:55:54;1.45;;;0.88;;
41943;SDS011;27636;52.610;13.244;2023-08-07T21:00:58;5.95;;;1.40;;
41943;SDS011;27636;52.610;13.244;2023-08-07T21:06:01;3.47;;;1.08;;
41943;SDS011;27636;52.610;13.244;2023-08-07T21:11:06;5.30;;;1.05;;
41943;SDS011;27636;52.610;13.244;2023-08-07T21:16:09;3.25;;;0.98;;
41943;SDS011;27636;52.610;13.244;2023-08-07T21:21:13;3.70;;;1.30;;
41943;SDS011;27636;52.610;13.244;2023-08-07T21:26:18;4.47;;;1.70;;
41943;SDS011;27636;52.610;13.244;2023-08-07T21:36:25;3.78;;;1.27;;
41943;SDS011;27636;52.610;13.244;2023-08-07T21:41:30;6.15;;;1.25;;
41943;SDS011;27636;52.610;13.244;2023-08-07T21:46:34;13.10;;;2.00;;
41943;SDS011;27636;52.610;13.244;2023-08-07T21:51:38;2.55;;;1.13;;
41943;SDS011;27636;52.610;13.244;2023-08-07T21:56:42;10.27;;;2.10;;
41943;SDS011;27636;52.610;13.244;2023-08-07T22:01:47;5.13;;;1.85;;
41943;SDS011;27636;52.610;13.244;2023-08-07T22:06:50;5.53;;;1.20;;
41943;SDS011;27636;52.610;13.244;2023-08-07T22:11:55;4.28;;;1.20;;
41943;SDS011;27636;52.610;13.244;2023-08-07T22:17:00;7.18;;;1.75;;
41943;SDS011;27636;52.610;13.244;2023-08-07T22:22:02;8.07;;;2.10;;
41943;SDS011;27636;52.610;13.244;2023-08-07T22:27:09;3.30;;;1.45;;
41943;SDS011;27636;52.610;13.244;2023-08-07T22:32:12;10.30;;;1.42;;
41943;SDS011;27636;52.610;13.244;2023-08-07T22:37:16;3.35;;;1.25;;
41943;SDS011;27636;52.610;13.244;2023-08-07T22:42:21;7.85;;;1.40;;
41943;SDS011;27636;52.610;13.244;2023-08-07T22:47:25;7.90;;;1.73;;
41943;SDS011;27636;52.610;13.244;2023-08-07T22:52:28;5.22;;;1.00;;
41943;SDS011;27636;52.610;13.244;2023-08-07T22:57:34;11.05;;;1.23;;
41943;SDS011;27636;52.610;13.244;2023-08-07T23:02:37;3.00;;;1.08;;
41943;SDS011;27636;52.610;13.244;2023-08-07T23:07:41;3.55;;;1.38;;
41943;SDS011;27636;52.610;13.244;2023-08-07T23:12:49;6.28;;;1.15;;
41943;SDS011;27636;52.610;13.244;2023-08-07T23:17:55;7.22;;;1.33;;
41943;SDS011;27636;52.610;13.244;2023-08-07T23:22:59;6.85;;;1.38;;
41943;SDS011;27636;52.610;13.244;2023-08-07T23:28:04;1.80;;;0.95;;
41943;SDS011;27636;52.610;13.244;2023-08-07T23:38:11;2.35;;;1.00;;
41943;SDS011;27636;52.610;13.244;2023-08-07T23:43:16;4.18;;;1.45;;
41943;SDS011;27636;52.610;13.244;2023-08-07T23:48:20;3.42;;;1.25;;
41943;SDS011;27636;52.610;13.244;2023-08-07T23:53:24;5.55;;;1.70;;
41943;SDS011;27636;52.610;13.244;2023-08-07T23:58:28;4.78;;;1.38;;
